ซานฟรานซิสโก, CA

08:10 AM PST วัน พฤศจิกายน 22, 2014 (GMT -0800)
SOMA - Near Van Ness | Change Station
CLOSE
Current Station
Personal Weather Stations
Location: San Francisco, CA
Elevation: 49 ft
Nearby Weather Stations

Elev 49 ft 37.77 °N, 122.42 °W | Updated 53 seconds ago

ฝนตก
ฝนตก
62.0 ฟาเรนไฮน์
Feels Like 62.0 ฟาเรนไฮน์
N
5.0
ลม ความผันแปร ลม from ทางทิศตะวันตกเฉียงใต้
Gusts 0.0 mph

วันนี้
High -- | Low -- ฟาเรนไฮน์
--% Chance of Precip.
Yesterday
High -- | Low -- ฟาเรนไฮน์
Precip. -- นิ้ว
6:57 AM 4:54 PM
พระจันทร์ใหม่, 0% visible
ความดัน 30.07 นิ้ว
ทัศนวิสัย 2.5 ไมล์
เมฆ มีเมฆคลุมเป็นบางส่วน 1000 ft
มีเมฆคลุมเป็นส่วนใหญ่ 1900 ft
มีเมฆคลุมไปทั่ว 3000 ft
อุณหภูมิที่อากาศอาจจับตัวเป็นหยาดน้ำค้าง 60 ฟาเรนไฮน์
ความชื้น 95%
Rainfall 0.28 นิ้ว
Snow Depth Not available.
UV 0 out of 12
Pollen .40 out of 12
Air Quality Not available.
Flu Activity Not available.
METAR KSFO 221556Z 21008KT 2 1/2SM -RA BR SCT010 BKN019 OVC030 17/16 A3007 RMK AO2 SLP181 VIS W 1 P0005 T01670161

More Conditions Fewer Conditions

ความดัน 30.07 นิ้ว
ทัศนวิสัย 2.5 ไมล์
เมฆ มีเมฆคลุมเป็นบางส่วน 1000 ft
มีเมฆคลุมเป็นส่วนใหญ่ 1900 ft
มีเมฆคลุมไปทั่ว 3000 ft
อุณหภูมิที่อากาศอาจจับตัวเป็นหยาดน้ำค้าง 60 ฟาเรนไฮน์
ความชื้น 95%
Rainfall 0.28 นิ้ว
Snow Depth Not available.
UV 0 out of 12
Pollen .40 out of 12
Air Quality Not available.
Flu Activity Not available.
METAR KSFO 221556Z 21008KT 2 1/2SM -RA BR SCT010 BKN019 OVC030 17/16 A3007 RMK AO2 SLP181 VIS W 1 P0005 T01670161

More Conditions Fewer Conditions

10-Day Weather Forecast

Almanac

ดาราศาสตร์

Nov. 22, 2014 Rise Set
Actual Time
Civil Twilight
Nautical Twilight
Astronomical Twilight
Moon
Length Of Visible Light
ความยาวของวัน
Tomorrow will be .
, % of the Moon is Illuminated

Today's Extremes

State Highs State Lows

Community

WunderPhotos

Upload Photos

1,772,842 photos uploaded!

WunderBlogs® & News

Nearby

Air Quality

  Air Quality AQ Index Pollutant
Not available.

Snow Depth

Station Depth Elevation

Earthquake Activity

City Distance Mag. Time & Date
Minimum magnitude displayed is 2.5.

Coastal Water Temperatures

สถานที่ อุณหภูมิ

Nearby Weather Stations